Time;durP1;ratioP1;P1;durP2;ratioP2;P2;SDS_P1;SDS_P2;PMS_P1;PMS_P2;Temp;Humidity;BMP_temperature;BMP_pressure;BME280_temperature;BME280_humidity;BME280_pressure;Samples;Min_cycle;Max_cycle;Signal;HPM_P1;HPM_P2
2021/12/17 00:00:58;;;;;;;6.88;6.25;;;5.80;99.90;;;;;;5093370;28;20303;-83
2021/12/17 00:03:38;;;;;;;6.18;5.57;;;5.90;99.90;;;;;;5094757;28;20208;-83
2021/12/17 00:06:39;;;;;;;4.88;4.40;;;5.90;99.90;;;;;;5094203;28;20231;-83
2021/12/17 00:09:07;;;;;;;5.35;4.95;;;5.80;99.90;;;;;;5093671;28;20204;-83
2021/12/17 00:11:36;;;;;;;6.00;5.50;;;5.80;99.90;;;;;;5094512;28;20254;-84
2021/12/17 00:14:04;;;;;;;5.85;5.25;;;5.80;99.90;;;;;;5094458;28;20232;-83
2021/12/17 00:16:37;;;;;;;6.55;5.88;;;5.80;99.90;;;;;;5094273;28;20235;-83
2021/12/17 00:19:20;;;;;;;5.35;4.85;;;5.90;99.90;;;;;;5093617;28;20235;-83
2021/12/17 00:44:16;;;;;;;6.57;5.97;;;5.80;99.90;;;;;;5093728;28;20231;-85
2021/12/17 00:49:40;;;;;;;6.22;5.65;;;5.80;99.90;;;;;;5093049;28;20216;-84
2021/12/17 00:52:10;;;;;;;6.28;5.78;;;5.70;99.90;;;;;;5093811;28;20244;-84
2021/12/17 00:54:41;;;;;;;6.72;6.15;;;5.70;99.90;;;;;;5093711;28;20205;-84
2021/12/17 00:57:14;;;;;;;7.55;6.82;;;5.70;99.90;;;;;;5093113;28;20228;-85
2021/12/17 00:59:46;;;;;;;6.40;5.65;;;5.70;99.90;;;;;;5092765;28;20204;-85
2021/12/17 01:02:17;;;;;;;6.55;5.95;;;5.70;99.90;;;;;;5093233;28;20224;-85
2021/12/17 01:04:49;;;;;;;8.90;6.68;;;5.70;99.90;;;;;;5093313;28;20212;-82
2021/12/17 01:07:23;;;;;;;6.88;6.28;;;5.70;99.90;;;;;;5093221;28;20273;-84
2021/12/17 01:09:51;;;;;;;8.48;6.38;;;5.60;99.90;;;;;;5093378;28;20285;-84
2021/12/17 01:12:20;;;;;;;13.70;6.65;;;5.60;99.90;;;;;;5092779;28;20304;-84
2021/12/17 01:14:49;;;;;;;8.23;6.88;;;5.70;99.90;;;;;;5092774;28;20229;-85
2021/12/17 01:17:20;;;;;;;7.70;6.38;;;5.60;99.90;;;;;;5093039;28;20239;-85
2021/12/17 01:23:04;;;;;;;7.22;6.53;;;5.60;99.90;;;;;;5070835;28;20204;-84
2021/12/17 01:25:52;;;;;;;6.70;6.07;;;5.60;99.90;;;;;;5070607;28;20220;-84
2021/12/17 01:36:37;;;;;;;7.55;6.85;;;5.70;99.90;;;;;;5092704;28;20220;-84
2021/12/17 01:42:05;;;;;;;6.68;6.07;;;5.70;99.90;;;;;;5092421;28;20219;-85
2021/12/17 01:44:35;;;;;;;6.85;6.18;;;5.70;99.90;;;;;;5092697;28;20219;-85
2021/12/17 01:47:06;;;;;;;7.20;6.07;;;5.70;99.90;;;;;;5092923;28;20236;-84
2021/12/17 02:00:51;;;;;;;9.23;7.78;;;5.60;99.90;;;;;;5112083;28;20227;-84
2021/12/17 02:03:21;;;;;;;6.50;5.97;;;5.60;99.90;;;;;;5113318;28;20248;-85
2021/12/17 02:05:50;;;;;;;6.60;6.00;;;5.60;99.90;;;;;;5112876;28;20207;-86
2021/12/17 02:08:18;;;;;;;6.78;6.18;;;5.60;99.90;;;;;;5112946;28;20251;-86
2021/12/17 02:11:31;;;;;;;7.53;6.82;;;5.50;99.90;;;;;;5112510;27;20207;-86
2021/12/17 02:19:46;;;;;;;8.50;7.68;;;5.50;99.90;;;;;;5049845;28;20244;-84
2021/12/17 02:30:52;;;;;;;7.25;6.65;;;5.50;99.90;;;;;;5111942;28;20216;-83
2021/12/17 02:33:21;;;;;;;11.45;7.00;;;5.50;99.90;;;;;;5112952;27;20258;-83
2021/12/17 02:35:49;;;;;;;7.18;6.45;;;5.50;99.90;;;;;;5112610;28;20259;-83
2021/12/17 02:38:19;;;;;;;8.02;6.72;;;5.50;99.90;;;;;;5112738;28;20224;-84
2021/12/17 02:46:27;;;;;;;7.20;6.35;;;5.50;99.90;;;;;;5112623;28;20207;-83
2021/12/17 02:48:58;;;;;;;7.13;6.43;;;5.40;99.90;;;;;;5112209;28;20268;-83
2021/12/17 02:51:26;;;;;;;7.25;6.65;;;5.40;99.90;;;;;;5112100;28;20202;-83
2021/12/17 02:54:00;;;;;;;7.15;6.55;;;5.40;99.90;;;;;;5115894;28;20210;-83
2021/12/17 02:56:30;;;;;;;8.02;7.22;;;5.40;99.90;;;;;;5116390;28;20208;-83
2021/12/17 02:59:00;;;;;;;6.70;6.13;;;5.40;99.90;;;;;;5115974;28;20212;-83
2021/12/17 03:01:28;;;;;;;8.90;7.93;;;5.30;99.90;;;;;;5116069;27;20226;-83
2021/12/17 03:03:59;;;;;;;8.40;7.53;;;5.30;99.90;;;;;;5115953;28;20204;-83
2021/12/17 03:06:28;;;;;;;9.63;7.60;;;5.30;99.90;;;;;;5116099;28;20209;-83
2021/12/17 03:08:58;;;;;;;8.73;7.90;;;5.30;99.90;;;;;;5115207;28;20241;-83
2021/12/17 03:11:26;;;;;;;8.80;7.10;;;5.30;99.90;;;;;;5115667;27;20196;-83
2021/12/17 03:13:55;;;;;;;7.32;6.65;;;5.30;99.90;;;;;;5115748;27;20253;-83
2021/12/17 03:16:30;;;;;;;7.22;6.53;;;5.30;99.90;;;;;;5115926;27;20208;-83
2021/12/17 03:19:08;;;;;;;9.23;8.20;;;5.30;99.90;;;;;;5115074;28;20250;-83
2021/12/17 03:24:23;;;;;;;7.55;6.75;;;5.30;99.90;;;;;;5115767;28;20203;-83
2021/12/17 03:26:55;;;;;;;8.77;7.97;;;5.30;99.90;;;;;;5115700;27;20243;-83
2021/12/17 03:29:24;;;;;;;9.18;8.20;;;5.20;99.90;;;;;;5115706;27;20242;-83
2021/12/17 03:31:53;;;;;;;8.98;8.07;;;5.20;99.90;;;;;;5115832;27;20203;-83
2021/12/17 03:34:22;;;;;;;7.45;6.80;;;5.20;99.90;;;;;;5115810;27;20242;-83
2021/12/17 03:36:53;;;;;;;8.90;8.07;;;5.20;99.90;;;;;;5115200;28;20315;-83
2021/12/17 03:39:25;;;;;;;13.45;8.65;;;5.20;99.90;;;;;;5114743;28;20289;-83
2021/12/17 03:41:55;;;;;;;7.22;6.53;;;5.20;99.90;;;;;;5115048;27;20304;-82
2021/12/17 03:44:24;;;;;;;9.25;8.40;;;5.20;99.90;;;;;;5115214;28;20204;-82
2021/12/17 03:46:53;;;;;;;7.63;6.82;;;5.20;99.90;;;;;;5114952;28;20307;-82
2021/12/17 03:49:23;;;;;;;7.65;7.00;;;5.10;99.90;;;;;;5114471;28;20208;-82
2021/12/17 03:52:03;;;;;;;8.63;7.75;;;5.20;99.90;;;;;;5114970;27;20231;-82
2021/12/17 03:54:34;;;;;;;8.00;7.30;;;5.20;99.90;;;;;;5116775;28;20294;-82
2021/12/17 03:57:05;;;;;;;11.18;9.13;;;5.10;99.90;;;;;;5119040;28;20216;-83
2021/12/17 03:59:35;;;;;;;7.70;7.03;;;5.10;99.90;;;;;;5117261;27;20203;-83
2021/12/17 04:02:05;;;;;;;8.13;7.32;;;5.10;99.90;;;;;;5114698;27;20224;-83
2021/12/17 04:04:33;;;;;;;10.07;8.48;;;5.10;99.90;;;;;;5114514;28;20226;-84
2021/12/17 04:07:02;;;;;;;8.90;7.95;;;5.10;99.90;;;;;;5115193;27;20299;-84
2021/12/17 04:09:31;;;;;;;8.07;7.20;;;5.10;99.90;;;;;;5114771;27;20199;-84
2021/12/17 04:12:07;;;;;;;9.63;8.68;;;5.10;99.90;;;;;;5114789;28;20200;-84
2021/12/17 04:14:43;;;;;;;7.38;6.65;;;5.10;99.90;;;;;;5113954;27;20213;-84
2021/12/17 04:17:12;;;;;;;7.20;6.50;;;5.10;99.90;;;;;;5114649;27;20247;-84
2021/12/17 04:19:41;;;;;;;10.48;8.23;;;5.10;99.90;;;;;;5114089;28;20242;-84
2021/12/17 04:22:09;;;;;;;9.40;6.47;;;5.10;99.90;;;;;;5114447;28;20219;-84
2021/12/17 04:24:37;;;;;;;7.50;6.80;;;5.10;99.90;;;;;;5114034;28;20204;-84
2021/12/17 04:27:08;;;;;;;8.25;7.50;;;5.10;99.90;;;;;;5114224;27;20234;-84
2021/12/17 04:29:41;;;;;;;6.82;5.85;;;5.10;99.90;;;;;;5113800;27;20203;-84
2021/12/17 04:32:10;;;;;;;8.88;7.93;;;5.10;99.90;;;;;;5114584;28;20200;-84
2021/12/17 04:34:38;;;;;;;6.65;5.97;;;5.20;99.90;;;;;;5114710;27;20196;-84
2021/12/17 04:37:07;;;;;;;7.00;6.03;;;5.10;99.90;;;;;;5114095;27;20283;-84
2021/12/17 04:39:36;;;;;;;7.93;7.13;;;5.20;99.90;;;;;;5113378;28;20404;-83
2021/12/17 04:42:11;;;;;;;7.20;6.50;;;5.20;99.90;;;;;;5114010;27;20356;-84
2021/12/17 04:44:48;;;;;;;9.13;7.05;;;5.20;99.90;;;;;;5113490;28;20228;-84
2021/12/17 04:58:11;;;;;;;7.35;6.70;;;5.20;99.90;;;;;;5113984;28;20230;-84
2021/12/17 05:00:42;;;;;;;8.13;7.38;;;5.20;99.90;;;;;;5113649;27;20230;-84
2021/12/17 05:03:10;;;;;;;7.03;6.43;;;5.20;99.90;;;;;;5113655;28;20215;-84
2021/12/17 05:05:39;;;;;;;7.95;7.05;;;5.20;99.90;;;;;;5114017;28;20203;-84
2021/12/17 05:08:12;;;;;;;7.55;6.78;;;5.10;99.90;;;;;;5113518;28;20227;-84
2021/12/17 05:11:00;;;;;;;8.27;7.47;;;5.20;99.90;;;;;;5112652;27;20203;-84
2021/12/17 05:19:03;;;;;;;12.40;8.43;;;5.10;99.90;;;;;;5079293;28;20270;-84
2021/12/17 05:21:32;;;;;;;8.40;7.60;;;5.10;99.90;;;;;;5113372;28;20234;-85
2021/12/17 05:24:00;;;;;;;8.30;7.50;;;5.00;99.90;;;;;;5113147;28;20314;-84
2021/12/17 05:26:29;;;;;;;9.20;8.30;;;5.00;99.90;;;;;;5113044;28;20249;-84
2021/12/17 05:28:57;;;;;;;8.18;7.47;;;5.10;99.90;;;;;;5112764;28;20235;-84
2021/12/17 05:31:28;;;;;;;8.15;7.35;;;5.10;99.90;;;;;;5113169;27;20264;-84
2021/12/17 05:33:58;;;;;;;8.65;6.90;;;5.10;99.90;;;;;;5113091;27;20204;-84
2021/12/17 05:36:27;;;;;;;7.53;6.78;;;5.10;99.90;;;;;;5113514;28;20231;-84
2021/12/17 05:38:55;;;;;;;7.85;7.05;;;5.10;99.90;;;;;;5112304;28;20243;-84
2021/12/17 05:41:24;;;;;;;7.72;6.90;;;5.10;99.90;;;;;;5112944;28;20222;-84
2021/12/17 05:43:57;;;;;;;7.30;6.63;;;5.10;99.90;;;;;;5112778;28;20223;-84
2021/12/17 05:46:38;;;;;;;7.95;7.15;;;5.10;99.90;;;;;;5112957;27;20235;-84
2021/12/17 05:49:08;;;;;;;7.30;6.63;;;5.10;99.90;;;;;;5112595;28;20208;-85
2021/12/17 05:51:36;;;;;;;6.68;6.07;;;5.10;99.90;;;;;;5113099;28;20203;-84
2021/12/17 05:54:04;;;;;;;7.05;6.45;;;5.10;99.90;;;;;;5112891;28;20199;-84
2021/12/17 05:56:33;;;;;;;8.27;7.40;;;5.10;99.90;;;;;;5112952;27;20294;-84
2021/12/17 05:59:01;;;;;;;7.00;6.22;;;5.10;99.90;;;;;;5117603;27;20203;-83
2021/12/17 06:01:29;;;;;;;7.18;6.55;;;5.10;99.90;;;;;;5122706;28;20207;-83
2021/12/17 06:03:58;;;;;;;6.43;5.85;;;5.10;99.90;;;;;;5120285;27;20306;-84
2021/12/17 06:06:30;;;;;;;7.18;6.47;;;5.10;99.90;;;;;;5113098;28;20219;-84
2021/12/17 06:09:00;;;;;;;5.60;5.15;;;5.20;99.90;;;;;;5111962;28;20212;-84
2021/12/17 06:11:29;;;;;;;5.78;5.20;;;5.20;99.90;;;;;;5114089;28;20203;-84
2021/12/17 06:13:57;;;;;;;7.85;4.78;;;5.20;99.90;;;;;;5112763;28;20196;-84
2021/12/17 06:16:27;;;;;;;10.25;4.45;;;5.20;99.90;;;;;;5112871;27;20234;-84
2021/12/17 06:18:55;;;;;;;5.63;5.15;;;5.20;99.90;;;;;;5112355;27;20230;-84
2021/12/17 06:21:24;;;;;;;9.20;5.82;;;5.20;99.90;;;;;;5112526;28;20210;-84
2021/12/17 06:23:54;;;;;;;5.80;5.30;;;5.20;99.90;;;;;;5112346;27;20284;-84
2021/12/17 06:26:23;;;;;;;4.75;4.35;;;5.20;99.90;;;;;;5113765;27;20227;-84
2021/12/17 06:28:52;;;;;;;5.50;5.03;;;5.20;99.90;;;;;;5116310;27;20207;-84
2021/12/17 06:31:23;;;;;;;6.80;4.93;;;5.20;99.90;;;;;;5117257;28;20204;-84
2021/12/17 06:33:52;;;;;;;7.80;6.03;;;5.20;99.90;;;;;;5116796;28;20208;-84
2021/12/17 06:36:20;;;;;;;5.43;5.03;;;5.20;99.90;;;;;;5117048;28;20208;-84
2021/12/17 06:38:49;;;;;;;6.88;6.20;;;5.30;99.90;;;;;;5116112;27;20207;-84
2021/12/17 06:41:19;;;;;;;6.13;5.63;;;5.20;99.90;;;;;;5116757;28;20207;-84
2021/12/17 06:43:48;;;;;;;6.30;5.70;;;5.20;99.90;;;;;;5116355;27;20220;-84
2021/12/17 06:46:23;;;;;;;5.68;5.18;;;5.20;99.90;;;;;;5116450;27;20217;-84
2021/12/17 06:48:58;;;;;;;8.43;5.65;;;5.20;99.90;;;;;;5115835;27;20250;-84
2021/12/17 06:59:49;;;;;;;4.82;4.43;;;5.40;99.90;;;;;;5115336;28;20294;-84
2021/12/17 07:10:40;;;;;;;7.28;5.88;;;5.40;99.90;;;;;;5115346;27;20232;-84
2021/12/17 07:21:31;;;;;;;5.82;5.32;;;5.50;99.90;;;;;;5115761;27;20371;-83
2021/12/17 07:35:39;;;;;;;6.70;5.95;;;5.50;99.90;;;;;;5071013;28;20268;-82
2021/12/17 07:41:09;;;;;;;7.35;6.35;;;5.60;99.90;;;;;;5096533;28;20292;-81
2021/12/17 07:43:50;;;;;;;7.43;6.50;;;5.60;99.90;;;;;;5114245;28;20307;-81
2021/12/17 07:46:21;;;;;;;6.28;5.65;;;5.60;99.90;;;;;;5106861;28;20276;-82
2021/12/17 07:48:52;;;;;;;8.88;6.75;;;5.60;99.90;;;;;;5103287;28;20211;-81
2021/12/17 07:51:23;;;;;;;9.00;6.75;;;5.60;99.90;;;;;;5115850;28;20222;-83
2021/12/17 07:53:52;;;;;;;8.18;6.78;;;5.60;99.90;;;;;;5108968;28;20197;-81
2021/12/17 07:56:23;;;;;;;9.30;7.75;;;5.70;99.90;;;;;;5114217;27;20195;-81
2021/12/17 07:58:52;;;;;;;7.13;6.18;;;5.70;99.90;;;;;;5095593;28;20258;-81
2021/12/17 08:01:23;;;;;;;7.97;6.85;;;5.70;99.90;;;;;;5095411;28;20224;-81
2021/12/17 08:03:51;;;;;;;8.70;6.65;;;5.70;99.90;;;;;;5095258;28;20265;-81
2021/12/17 08:06:20;;;;;;;6.43;5.88;;;5.70;99.90;;;;;;5099737;28;20272;-81
2021/12/17 08:08:48;;;;;;;7.47;6.47;;;5.80;99.90;;;;;;5100150;28;20200;-82
2021/12/17 08:11:16;;;;;;;6.50;5.88;;;5.80;99.90;;;;;;5095547;28;20200;-82
2021/12/17 08:13:46;;;;;;;7.30;6.20;;;5.80;99.90;;;;;;5097956;28;20193;-81
2021/12/17 08:16:29;;;;;;;6.93;5.88;;;5.80;99.90;;;;;;5108086;28;20205;-82
2021/12/17 08:23:09;;;;;;;10.43;5.38;;;5.80;99.90;;;;;;5095379;28;20200;-81
2021/12/17 08:24:56;;;;;;;6.38;4.95;;;5.90;99.90;;;;;;5107815;28;20268;-81
2021/12/17 08:27:42;;;;;;;5.78;5.05;;;5.90;99.90;;;;;;5120571;27;20216;-81
2021/12/17 08:30:28;;;;;;;5.65;4.95;;;5.90;99.90;;;;;;5110792;27;20233;-81
2021/12/17 08:32:57;;;;;;;6.40;5.15;;;6.00;99.90;;;;;;5114761;27;20257;-81
2021/12/17 08:35:27;;;;;;;5.90;5.32;;;6.00;99.90;;;;;;5114689;28;20210;-81
2021/12/17 08:37:56;;;;;;;5.38;4.88;;;6.00;99.90;;;;;;5114878;28;20268;-81
2021/12/17 08:40:26;;;;;;;4.85;4.43;;;6.00;99.90;;;;;;5116767;27;20233;-81
2021/12/17 08:42:55;;;;;;;4.55;3.83;;;6.10;99.90;;;;;;5115538;27;20196;-81
2021/12/17 08:45:24;;;;;;;5.90;4.38;;;6.10;99.90;;;;;;5113734;27;20215;-82
2021/12/17 08:47:53;;;;;;;3.88;3.58;;;6.10;99.90;;;;;;5114322;28;20223;-81
2021/12/17 08:50:21;;;;;;;4.72;4.32;;;6.00;99.90;;;;;;5107980;28;20234;-81
2021/12/17 08:52:53;;;;;;;5.78;3.95;;;6.00;99.90;;;;;;5106361;27;20199;-81
2021/12/17 08:55:22;;;;;;;7.32;4.20;;;6.00;99.90;;;;;;5093873;28;20209;-81
2021/12/17 08:57:50;;;;;;;4.97;4.47;;;6.10;99.90;;;;;;5094744;28;20243;-81
2021/12/17 09:00:19;;;;;;;5.55;4.20;;;6.10;99.90;;;;;;5113765;28;20196;-81
2021/12/17 09:02:47;;;;;;;4.88;4.45;;;6.10;99.90;;;;;;5110437;27;20278;-81
2021/12/17 09:05:17;;;;;;;3.70;3.40;;;6.10;99.90;;;;;;5109992;28;20209;-81
2021/12/17 09:07:46;;;;;;;4.72;3.75;;;6.10;99.90;;;;;;5093573;28;20216;-81
2021/12/17 09:10:20;;;;;;;4.85;4.35;;;6.10;99.90;;;;;;5114049;27;20204;-81
2021/12/17 09:12:49;;;;;;;6.53;4.78;;;6.10;99.90;;;;;;5105714;27;20241;-81
2021/12/17 09:15:18;;;;;;;6.05;4.38;;;6.10;99.90;;;;;;5093859;28;20246;-81
2021/12/17 09:17:46;;;;;;;5.20;4.70;;;6.10;99.90;;;;;;5113489;28;20219;-81
2021/12/17 09:20:15;;;;;;;4.25;3.85;;;6.10;99.90;;;;;;5113454;28;20211;-81
2021/12/17 09:22:43;;;;;;;6.55;4.72;;;6.10;99.90;;;;;;5095039;28;20201;-81
2021/12/17 09:25:12;;;;;;;3.45;3.15;;;6.20;99.90;;;;;;5093844;28;20243;-82
2021/12/17 09:27:42;;;;;;;8.40;5.63;;;6.20;99.90;;;;;;5111238;28;20220;-82
2021/12/17 09:30:13;;;;;;;4.93;3.88;;;6.20;99.90;;;;;;5097937;27;20204;-81
2021/12/17 09:32:42;;;;;;;5.90;4.00;;;6.20;99.90;;;;;;5113652;28;20199;-81
2021/12/17 09:35:16;;;;;;;5.15;4.32;;;6.20;99.90;;;;;;5112387;28;20199;-81
2021/12/17 09:37:44;;;;;;;4.75;4.05;;;6.20;99.90;;;;;;5105163;28;20250;-82
2021/12/17 09:40:13;;;;;;;5.88;4.57;;;6.20;99.90;;;;;;5113582;28;20254;-82
2021/12/17 09:42:45;;;;;;;5.55;4.68;;;6.20;99.90;;;;;;5106139;27;20212;-81
2021/12/17 09:45:20;;;;;;;3.90;3.60;;;6.20;99.90;;;;;;5095809;28;20312;-82
2021/12/17 09:47:49;;;;;;;3.65;3.33;;;6.20;99.90;;;;;;5103728;28;20280;-81
2021/12/17 09:50:20;;;;;;;4.40;4.00;;;6.20;99.90;;;;;;5094859;28;20214;-81
2021/12/17 09:52:50;;;;;;;4.80;4.35;;;6.30;99.90;;;;;;5093938;28;20204;-82
2021/12/17 09:55:19;;;;;;;4.88;4.40;;;6.30;99.90;;;;;;5101632;28;20199;-81
2021/12/17 09:57:54;;;;;;;6.28;4.63;;;6.30;99.90;;;;;;5134621;27;20242;-82
2021/12/17 10:00:26;;;;;;;6.55;3.75;;;6.30;99.90;;;;;;5119833;28;20204;-82
2021/12/17 10:03:00;;;;;;;4.57;4.18;;;6.30;99.90;;;;;;5113408;28;20278;-82
2021/12/17 10:05:31;;;;;;;5.32;4.80;;;6.30;99.90;;;;;;5114721;28;20216;-81
2021/12/17 10:08:02;;;;;;;5.22;4.32;;;6.30;99.90;;;;;;5118004;28;20215;-82
2021/12/17 10:10:35;;;;;;;4.32;3.83;;;6.30;99.90;;;;;;5114358;28;20200;-82
2021/12/17 10:13:11;;;;;;;4.60;4.20;;;6.30;99.90;;;;;;5106589;28;20200;-84
2021/12/17 10:15:42;;;;;;;4.57;4.07;;;6.40;99.90;;;;;;5113014;28;20199;-84
2021/12/17 10:18:10;;;;;;;8.10;5.00;;;6.40;99.90;;;;;;5114532;28;20235;-82
2021/12/17 10:20:43;;;;;;;7.35;4.45;;;6.40;99.90;;;;;;5124185;27;20199;-84
2021/12/17 10:23:12;;;;;;;6.22;5.03;;;6.40;99.90;;;;;;5109523;28;20200;-82
2021/12/17 10:25:44;;;;;;;6.55;4.95;;;6.50;99.90;;;;;;5101520;28;20208;-84
2021/12/17 10:28:15;;;;;;;4.45;4.05;;;6.50;99.90;;;;;;5102189;28;20219;-83
2021/12/17 10:31:05;;;;;;;5.50;4.95;;;6.50;99.90;;;;;;5096603;28;20223;-82
2021/12/17 10:33:35;;;;;;;6.35;5.68;;;6.60;99.90;;;;;;5112440;28;20269;-83
2021/12/17 10:36:04;;;;;;;7.13;5.18;;;6.60;99.90;;;;;;5111288;28;20207;-83
2021/12/17 10:38:36;;;;;;;6.15;5.30;;;6.60;99.90;;;;;;5112118;28;20228;-83
2021/12/17 10:41:07;;;;;;;5.53;4.70;;;6.70;99.90;;;;;;5111829;28;20219;-83
2021/12/17 10:43:41;;;;;;;4.95;4.45;;;6.70;99.90;;;;;;5111834;27;20199;-83
2021/12/17 10:46:21;;;;;;;6.68;5.20;;;6.70;99.90;;;;;;5112034;27;20269;-83
2021/12/17 10:48:54;;;;;;;5.22;4.70;;;6.70;99.90;;;;;;5111007;27;20207;-83
2021/12/17 10:51:44;;;;;;;4.97;4.53;;;6.70;99.90;;;;;;5111888;28;20222;-83
2021/12/17 10:54:15;;;;;;;4.13;3.83;;;6.70;99.90;;;;;;5111574;28;20200;-83
2021/12/17 10:56:45;;;;;;;4.85;4.05;;;6.80;99.90;;;;;;5112627;27;20232;-83
2021/12/17 10:59:18;;;;;;;5.72;4.35;;;6.80;99.90;;;;;;5111598;28;20384;-83
2021/12/17 11:01:49;;;;;;;10.10;4.68;;;6.90;99.90;;;;;;5112062;28;20204;-83
2021/12/17 11:04:20;;;;;;;4.10;3.53;;;7.00;99.90;;;;;;5111761;28;20196;-91
2021/12/17 11:06:55;;;;;;;6.35;4.00;;;7.00;99.90;;;;;;5112051;27;20349;-91
2021/12/17 11:09:35;;;;;;;5.18;4.72;;;7.00;99.90;;;;;;5111261;28;20283;-90
2021/12/17 11:12:17;;;;;;;6.00;4.13;;;7.00;99.90;;;;;;5111845;28;20207;-90
2021/12/17 11:14:48;;;;;;;13.38;4.30;;;7.10;99.90;;;;;;5114733;28;20215;-84
2021/12/17 11:17:20;;;;;;;5.55;4.13;;;7.10;99.90;;;;;;5115518;28;20224;-85
2021/12/17 11:20:09;;;;;;;4.35;4.05;;;7.10;99.90;;;;;;5114761;28;20211;-84
2021/12/17 11:22:41;;;;;;;5.72;4.45;;;7.10;99.90;;;;;;5108115;27;20281;-85
2021/12/17 11:25:11;;;;;;;5.03;4.53;;;7.10;99.90;;;;;;5121573;27;20207;-84
2021/12/17 11:27:40;;;;;;;3.60;3.28;;;7.10;99.90;;;;;;5113427;28;20208;-93
2021/12/17 11:30:13;;;;;;;4.25;3.75;;;7.20;99.90;;;;;;5105504;28;20241;-93
2021/12/17 11:32:45;;;;;;;6.70;4.93;;;7.20;99.90;;;;;;5136534;27;20223;-91
2021/12/17 11:35:18;;;;;;;4.35;3.97;;;7.40;99.90;;;;;;5119280;27;20198;-92
2021/12/17 11:37:49;;;;;;;4.57;4.13;;;7.80;99.90;;;;;;5126402;27;20268;-91
2021/12/17 11:40:23;;;;;;;3.65;3.35;;;8.10;99.90;;;;;;5116018;28;20204;-91
2021/12/17 11:43:13;;;;;;;4.90;4.45;;;8.20;99.90;;;;;;5135526;27;20199;-91
2021/12/17 11:45:45;;;;;;;4.03;3.65;;;8.50;99.90;;;;;;5123764;27;20218;-83
2021/12/17 11:48:19;;;;;;;3.47;3.17;;;8.60;99.90;;;;;;5120105;27;20231;-83
2021/12/17 11:51:02;;;;;;;3.58;3.28;;;8.40;99.90;;;;;;5125639;27;20203;-82
2021/12/17 11:53:34;;;;;;;6.97;4.53;;;8.70;99.90;;;;;;5111252;28;20261;-82
2021/12/17 11:56:04;;;;;;;4.07;3.70;;;8.80;99.90;;;;;;5097704;27;20200;-82
2021/12/17 11:58:51;;;;;;;4.63;4.07;;;8.90;99.90;;;;;;5101553;28;20253;-82
2021/12/17 12:01:51;;;;;;;3.80;3.45;;;9.00;99.90;;;;;;5098181;28;20235;-83
2021/12/17 12:04:38;;;;;;;5.95;4.20;;;9.50;99.90;;;;;;5119693;27;20202;-84
2021/12/17 12:07:08;;;;;;;5.00;3.95;;;9.60;99.90;;;;;;5094793;28;20278;-83
2021/12/17 12:10:01;;;;;;;4.85;4.00;;;9.80;99.90;;;;;;5115760;27;20195;-83
2021/12/17 12:12:48;;;;;;;5.07;4.00;;;10.10;99.90;;;;;;5142817;27;20207;-83
2021/12/17 12:15:40;;;;;;;4.53;4.07;;;9.90;99.90;;;;;;5101464;28;20200;-83
2021/12/17 12:18:17;;;;;;;5.50;4.75;;;9.70;99.90;;;;;;5094843;28;20216;-81
2021/12/17 12:20:59;;;;;;;3.72;3.45;;;9.70;99.90;;;;;;5094030;28;20220;-87
2021/12/17 12:23:46;;;;;;;5.03;4.50;;;9.70;99.90;;;;;;5095174;28;20203;-84
2021/12/17 12:26:41;;;;;;;3.78;3.47;;;9.90;99.90;;;;;;5094184;28;20242;-87
2021/12/17 12:29:15;;;;;;;4.60;3.40;;;9.80;99.90;;;;;;5088471;28;20280;-88
2021/12/17 12:31:54;;;;;;;3.50;3.20;;;9.60;99.90;;;;;;5095542;28;20208;-88
2021/12/17 12:34:33;;;;;;;3.90;3.47;;;9.50;99.90;;;;;;5093702;28;20212;-88
2021/12/17 12:37:25;;;;;;;4.53;3.95;;;9.20;99.90;;;;;;5093000;28;20303;-89
2021/12/17 12:40:22;;;;;;;3.78;3.47;;;8.80;99.90;;;;;;5093166;28;20208;-88
2021/12/17 12:42:54;;;;;;;7.20;4.30;;;8.80;99.90;;;;;;5093142;28;20227;-87
2021/12/17 12:45:23;;;;;;;5.10;3.90;;;8.80;99.90;;;;;;5093417;28;20207;-88
2021/12/17 12:47:58;;;;;;;5.00;4.00;;;8.70;99.90;;;;;;5092728;28;20232;-90
2021/12/17 12:50:33;;;;;;;7.93;4.32;;;8.50;99.90;;;;;;5092922;28;20208;-89
2021/12/17 12:53:09;;;;;;;4.63;3.83;;;8.20;99.90;;;;;;5092748;28;20438;-89
2021/12/17 12:55:40;;;;;;;4.90;4.40;;;8.00;99.90;;;;;;5093066;28;20210;-88
2021/12/17 12:58:11;;;;;;;4.25;3.85;;;7.80;99.90;;;;;;5093371;28;20232;-89
2021/12/17 13:00:45;;;;;;;5.90;4.50;;;7.80;99.90;;;;;;5092104;28;20204;-89
2021/12/17 13:03:16;;;;;;;3.92;3.50;;;7.60;99.90;;;;;;5093146;28;20208;-89
2021/12/17 13:05:49;;;;;;;5.45;4.38;;;7.50;99.90;;;;;;5092454;28;20205;-89
2021/12/17 13:08:20;;;;;;;4.55;4.13;;;7.50;99.90;;;;;;5093286;28;20224;-89
2021/12/17 13:10:54;;;;;;;7.70;5.35;;;7.40;99.90;;;;;;5096621;28;20203;-84
2021/12/17 13:13:31;;;;;;;4.55;3.75;;;7.30;99.90;;;;;;5093053;28;20204;-84
2021/12/17 13:16:15;;;;;;;5.68;5.07;;;7.30;99.90;;;;;;5092548;28;20208;-84
2021/12/17 13:21:45;;;;;;;7.40;3.95;;;7.30;99.90;;;;;;5092752;28;20212;-84
2021/12/17 13:24:23;;;;;;;8.20;4.97;;;7.20;99.90;;;;;;5092905;28;20284;-87
2021/12/17 13:26:54;;;;;;;4.40;3.67;;;7.20;99.90;;;;;;5093714;28;20289;-86
2021/12/17 13:29:24;;;;;;;5.32;4.47;;;7.20;99.90;;;;;;5093096;28;20205;-85
2021/12/17 13:31:57;;;;;;;4.72;4.20;;;7.20;99.90;;;;;;5093249;28;20200;-85
2021/12/17 13:34:29;;;;;;;5.47;4.93;;;7.20;99.90;;;;;;5093396;28;20204;-86
2021/12/17 13:37:18;;;;;;;5.85;4.25;;;7.10;99.90;;;;;;5093291;28;20220;-93
2021/12/17 13:50:14;;;;;;;5.15;4.65;;;6.80;99.90;;;;;;5063285;28;20197;-93
2021/12/17 13:52:53;;;;;;;4.32;3.78;;;6.80;99.90;;;;;;5051369;28;20239;-93
2021/12/17 13:55:23;;;;;;;4.88;4.05;;;6.70;99.90;;;;;;5060023;28;20209;-94
2021/12/17 13:57:53;;;;;;;7.05;4.13;;;6.70;99.90;;;;;;5052182;28;20218;-92
2021/12/17 14:00:24;;;;;;;4.68;4.18;;;6.80;99.90;;;;;;5050167;28;20205;-93
2021/12/17 14:03:19;;;;;;;4.18;3.78;;;6.80;99.90;;;;;;5050854;28;20209;-92
2021/12/17 14:06:22;;;;;;;4.65;4.00;;;6.80;99.90;;;;;;5056619;28;20201;-94
2021/12/17 14:08:52;;;;;;;5.57;4.50;;;6.70;99.90;;;;;;5062065;28;20197;-93
2021/12/17 14:11:24;;;;;;;8.07;4.97;;;6.60;99.90;;;;;;5064673;28;20205;-93
2021/12/17 14:14:22;;;;;;;5.00;4.15;;;6.70;99.90;;;;;;5062484;28;20256;-92
2021/12/17 14:17:01;;;;;;;3.90;3.53;;;6.60;99.90;;;;;;5074115;28;20231;-92
2021/12/17 14:19:43;;;;;;;8.20;4.57;;;6.50;99.90;;;;;;5063495;28;20212;-92
2021/12/17 14:22:35;;;;;;;5.75;4.57;;;6.60;99.90;;;;;;5049792;28;20217;-93
2021/12/17 14:25:30;;;;;;;4.63;4.22;;;6.50;99.90;;;;;;5082386;28;20235;-92
2021/12/17 14:28:06;;;;;;;5.57;3.95;;;6.50;99.90;;;;;;5093039;28;20278;-95
2021/12/17 14:30:48;;;;;;;8.73;4.53;;;6.40;99.90;;;;;;5095091;28;20209;-92
2021/12/17 14:33:19;;;;;;;4.10;3.70;;;6.50;99.90;;;;;;5093384;28;20204;-93
2021/12/17 14:35:59;;;;;;;19.17;4.22;;;6.50;99.90;;;;;;5101755;28;20277;-93
2021/12/17 14:39:04;;;;;;;4.53;3.42;;;6.40;99.90;;;;;;5097801;28;20286;-92
2021/12/17 14:41:42;;;;;;;5.20;3.85;;;6.40;99.90;;;;;;5092800;28;20209;-92
2021/12/17 14:44:33;;;;;;;6.20;3.88;;;6.40;99.90;;;;;;5091434;28;20211;-93
2021/12/17 14:47:52;;;;;;;3.30;3.10;;;6.40;99.90;;;;;;5091675;28;20227;-94
2021/12/17 15:02:45;;;;;;;9.75;4.05;;;6.40;99.90;;;;;;5063722;28;20196;-95
2021/12/17 15:08:29;;;;;;;7.40;4.63;;;6.30;99.90;;;;;;5194633;22;20204;-95
2021/12/17 15:11:05;;;;;;;5.18;4.07;;;6.30;99.90;;;;;;5090000;28;20185;-93
2021/12/17 15:13:34;;;;;;;4.15;3.75;;;6.40;99.90;;;;;;5076656;28;20215;-92
2021/12/17 15:16:04;;;;;;;5.05;4.55;;;6.40;99.90;;;;;;5087034;28;20209;-94
2021/12/17 15:18:43;;;;;;;4.68;4.13;;;6.40;99.90;;;;;;5108229;28;20227;-92
2021/12/17 15:21:17;;;;;;;4.75;4.05;;;6.40;99.90;;;;;;5104815;28;20226;-92
2021/12/17 15:23:48;;;;;;;4.45;4.05;;;6.40;99.90;;;;;;5097938;28;20197;-93
2021/12/17 15:26:17;;;;;;;4.55;3.88;;;6.40;99.90;;;;;;5097426;28;20217;-92
2021/12/17 15:28:48;;;;;;;10.65;4.97;;;6.40;99.90;;;;;;5096489;28;20228;-94
2021/12/17 15:31:42;;;;;;;8.10;5.38;;;6.40;99.90;;;;;;5100937;28;20222;-93
2021/12/17 15:34:10;;;;;;;8.38;5.07;;;6.40;99.90;;;;;;5095596;28;20204;-93
2021/12/17 15:36:39;;;;;;;4.63;4.00;;;6.30;99.90;;;;;;5096383;28;20197;-93
2021/12/17 15:39:11;;;;;;;5.03;3.42;;;6.30;99.90;;;;;;5097958;28;20308;-94
2021/12/17 15:41:41;;;;;;;4.95;4.43;;;6.30;99.90;;;;;;5101962;28;20211;-92
2021/12/17 15:44:17;;;;;;;9.95;4.63;;;6.30;99.90;;;;;;5089925;28;20200;-93
2021/12/17 15:46:50;;;;;;;5.93;4.22;;;6.20;99.90;;;;;;5107326;28;20301;-93
2021/12/17 15:49:19;;;;;;;6.00;5.22;;;6.20;99.90;;;;;;5097137;28;20258;-94
2021/12/17 15:54:37;;;;;;;5.47;4.25;;;6.20;99.90;;;;;;5094942;28;20200;-93
2021/12/17 15:57:08;;;;;;;6.72;4.85;;;6.20;99.90;;;;;;5103899;28;20225;-92
2021/12/17 15:59:39;;;;;;;6.18;4.50;;;6.20;99.90;;;;;;5095317;28;20197;-92
2021/12/17 16:02:08;;;;;;;5.95;4.38;;;6.20;99.90;;;;;;5094245;28;20203;-92
2021/12/17 16:04:40;;;;;;;5.22;4.50;;;6.20;99.90;;;;;;5101818;28;20201;-92
2021/12/17 16:07:10;;;;;;;5.07;4.30;;;6.10;99.90;;;;;;5094744;28;20231;-91
2021/12/17 16:18:16;;;;;;;4.57;4.10;;;6.10;99.90;;;;;;5094884;28;20220;-92
2021/12/17 16:21:04;;;;;;;6.78;5.18;;;6.00;99.90;;;;;;5100952;28;20205;-91
2021/12/17 16:23:37;;;;;;;5.43;4.68;;;6.00;99.90;;;;;;5101014;28;20200;-92